Time;durP1;ratioP1;P1;durP2;ratioP2;P2;SDS_P1;SDS_P2;PMS_P1;PMS_P2;Temp;Humidity;BMP_temperature;BMP_pressure;BME280_temperature;BME280_humidity;BME280_pressure;Samples;Min_cycle;Max_cycle;Signal;HPM_P1;HPM_P2
2022/10/11 00:01:13;;;;;;;;;;;23.60;46.20;;;;;;492075;240;2179;-74
2022/10/11 00:03:14;;;;;;;;;;;23.60;46.20;;;;;;492090;240;1078;-74
2022/10/11 00:05:16;;;;;;;;;;;23.70;46.20;;;;;;492060;240;1102;-74
2022/10/11 00:07:17;;;;;;;;;;;23.70;46.00;;;;;;492065;240;1113;-74
2022/10/11 00:09:18;;;;;;;;;;;23.70;46.00;;;;;;492083;240;1028;-74
2022/10/11 00:11:20;;;;;;;;;;;23.80;45.90;;;;;;492019;240;1123;-74
2022/10/11 00:13:21;;;;;;;;;;;24.00;45.70;;;;;;492048;240;1055;-74
2022/10/11 00:15:22;;;;;;;;;;;24.00;45.60;;;;;;492033;240;1089;-74
2022/10/11 00:17:24;;;;;;;;;;;24.00;45.60;;;;;;492029;240;1111;-74
2022/10/11 00:19:25;;;;;;;;;;;24.00;45.60;;;;;;492002;240;1107;-74
2022/10/11 00:21:27;;;;;;;;;;;24.00;45.60;;;;;;491951;240;2175;-74
2022/10/11 00:23:28;;;;;;;;;;;24.00;45.80;;;;;;492013;240;1096;-74
2022/10/11 00:25:29;;;;;;;;;;;24.00;45.70;;;;;;491987;240;1176;-74
2022/10/11 00:27:30;;;;;;;;;;;24.00;45.90;;;;;;492036;240;1072;-74
2022/10/11 00:29:32;;;;;;;;;;;24.00;46.00;;;;;;491964;240;1114;-74
2022/10/11 00:31:33;;;;;;;;;;;24.00;46.10;;;;;;492010;240;1130;-75
2022/10/11 00:33:34;;;;;;;;;;;23.90;46.40;;;;;;492069;240;1095;-75
2022/10/11 00:35:36;;;;;;;;;;;23.70;46.60;;;;;;491991;240;985;-74
2022/10/11 00:37:37;;;;;;;;;;;23.70;46.70;;;;;;492025;240;1130;-74
2022/10/11 00:39:39;;;;;;;;;;;23.70;46.80;;;;;;492033;240;1119;-74
2022/10/11 00:41:40;;;;;;;;;;;23.60;47.00;;;;;;492032;240;2168;-74
2022/10/11 00:43:41;;;;;;;;;;;23.50;47.40;;;;;;492043;240;1126;-74
2022/10/11 00:45:43;;;;;;;;;;;23.40;47.40;;;;;;492016;240;1088;-74
2022/10/11 00:47:44;;;;;;;;;;;23.40;47.40;;;;;;492058;240;1115;-74
2022/10/11 00:49:45;;;;;;;;;;;23.40;47.50;;;;;;491989;240;1118;-74
2022/10/11 00:51:47;;;;;;;;;;;23.30;47.80;;;;;;492007;240;1089;-74
2022/10/11 00:53:48;;;;;;;;;;;23.30;48.00;;;;;;491994;240;1362;-74
2022/10/11 00:55:49;;;;;;;;;;;23.40;47.90;;;;;;492033;240;1132;-74
2022/10/11 00:57:51;;;;;;;;;;;23.40;47.70;;;;;;491962;240;1173;-74
2022/10/11 00:59:52;;;;;;;;;;;23.50;47.70;;;;;;492007;240;1198;-74
2022/10/11 01:01:54;;;;;;;;;;;23.50;47.60;;;;;;491991;240;2148;-74
2022/10/11 01:03:55;;;;;;;;;;;23.60;47.50;;;;;;492028;240;1162;-74
2022/10/11 01:05:56;;;;;;;;;;;23.70;47.50;;;;;;491977;240;1119;-75
2022/10/11 01:07:58;;;;;;;;;;;23.70;47.40;;;;;;492072;240;1176;-75
2022/10/11 01:09:59;;;;;;;;;;;23.60;47.40;;;;;;492063;240;1092;-74
2022/10/11 01:12:01;;;;;;;;;;;23.60;47.60;;;;;;491983;240;1188;-75
2022/10/11 01:14:02;;;;;;;;;;;23.60;47.90;;;;;;492039;240;1153;-75
2022/10/11 01:16:03;;;;;;;;;;;23.60;48.00;;;;;;492058;240;1207;-75
2022/10/11 01:18:05;;;;;;;;;;;23.70;48.00;;;;;;492036;240;1195;-74
2022/10/11 01:20:06;;;;;;;;;;;23.80;48.00;;;;;;492080;240;1197;-74
2022/10/11 01:22:07;;;;;;;;;;;23.70;47.90;;;;;;491998;240;2160;-74
2022/10/11 01:24:09;;;;;;;;;;;23.80;48.00;;;;;;492100;240;1149;-74
2022/10/11 01:26:10;;;;;;;;;;;23.90;47.90;;;;;;492055;240;1186;-74
2022/10/11 01:28:11;;;;;;;;;;;23.90;47.70;;;;;;492015;240;1147;-74
2022/10/11 01:30:13;;;;;;;;;;;24.00;47.70;;;;;;492043;240;1174;-74
2022/10/11 01:32:14;;;;;;;;;;;24.00;47.60;;;;;;492051;240;1071;-74
2022/10/11 01:34:16;;;;;;;;;;;24.00;47.60;;;;;;492045;240;1188;-74
2022/10/11 01:36:17;;;;;;;;;;;24.00;47.50;;;;;;492104;240;1108;-74
2022/10/11 01:38:18;;;;;;;;;;;24.00;47.60;;;;;;492042;240;1201;-74
2022/10/11 01:40:20;;;;;;;;;;;24.00;47.70;;;;;;492049;240;1311;-74
2022/10/11 01:42:21;;;;;;;;;;;24.00;47.70;;;;;;492097;240;2129;-74
2022/10/11 01:44:22;;;;;;;;;;;23.90;47.80;;;;;;492022;240;1118;-75
2022/10/11 01:46:24;;;;;;;;;;;23.90;48.00;;;;;;492071;240;1206;-75
2022/10/11 01:48:25;;;;;;;;;;;23.80;48.10;;;;;;492036;240;1167;-74
2022/10/11 01:50:26;;;;;;;;;;;23.80;48.20;;;;;;492049;240;1225;-75
2022/10/11 01:52:28;;;;;;;;;;;23.70;48.30;;;;;;492039;240;1169;-75
2022/10/11 01:54:29;;;;;;;;;;;23.60;48.40;;;;;;492023;240;1166;-75
2022/10/11 01:56:30;;;;;;;;;;;23.60;48.50;;;;;;492051;240;1216;-74
2022/10/11 01:58:32;;;;;;;;;;;23.60;48.70;;;;;;492063;240;1152;-74
2022/10/11 02:00:33;;;;;;;;;;;23.50;48.70;;;;;;492054;240;1310;-74
2022/10/11 02:02:35;;;;;;;;;;;23.40;48.80;;;;;;492108;240;2124;-74
2022/10/11 02:04:36;;;;;;;;;;;23.30;49.00;;;;;;492114;240;1080;-74
2022/10/11 02:06:38;;;;;;;;;;;23.30;49.10;;;;;;492075;240;1250;-74
2022/10/11 02:08:39;;;;;;;;;;;23.20;49.30;;;;;;492078;240;1158;-74
2022/10/11 02:10:40;;;;;;;;;;;23.30;49.20;;;;;;491952;242;1558;-74
2022/10/11 02:12:42;;;;;;;;;;;23.30;49.20;;;;;;492032;240;1112;-74
2022/10/11 02:14:43;;;;;;;;;;;23.30;48.90;;;;;;492021;240;1123;-74
2022/10/11 02:16:44;;;;;;;;;;;23.40;48.90;;;;;;492077;240;1147;-74
2022/10/11 02:18:46;;;;;;;;;;;23.50;48.70;;;;;;492043;240;1082;-75
2022/10/11 02:20:47;;;;;;;;;;;23.50;48.50;;;;;;492004;240;1184;-75
2022/10/11 02:22:48;;;;;;;;;;;23.60;48.40;;;;;;492043;240;2164;-74
2022/10/11 02:24:50;;;;;;;;;;;23.70;48.30;;;;;;492064;240;1185;-74
2022/10/11 02:26:53;;;;;;;;;;;23.60;48.20;;;;;;492047;240;1133;-74
2022/10/11 02:28:53;;;;;;;;;;;23.70;48.30;;;;;;492119;240;1411;-74
2022/10/11 02:30:55;;;;;;;;;;;23.70;48.20;;;;;;492064;240;1112;-74
2022/10/11 02:32:56;;;;;;;;;;;23.90;48.20;;;;;;492120;240;1150;-74
2022/10/11 02:34:57;;;;;;;;;;;24.00;48.10;;;;;;492096;240;1059;-74
2022/10/11 02:36:59;;;;;;;;;;;24.10;48.00;;;;;;492134;240;1153;-74
2022/10/11 02:39:00;;;;;;;;;;;24.00;48.10;;;;;;492085;240;1255;-74
2022/10/11 02:41:01;;;;;;;;;;;23.90;48.30;;;;;;492144;240;1173;-74
2022/10/11 02:43:03;;;;;;;;;;;24.00;48.40;;;;;;492028;240;2176;-74
2022/10/11 02:45:04;;;;;;;;;;;24.10;48.30;;;;;;492043;240;1182;-74
2022/10/11 02:47:05;;;;;;;;;;;24.00;48.20;;;;;;492059;240;1152;-74
2022/10/11 02:49:07;;;;;;;;;;;24.10;48.10;;;;;;492035;240;1197;-74
2022/10/11 02:51:08;;;;;;;;;;;24.10;48.10;;;;;;492013;240;1184;-75
2022/10/11 02:53:09;;;;;;;;;;;24.10;48.00;;;;;;492091;240;1200;-75
2022/10/11 02:55:11;;;;;;;;;;;24.10;48.10;;;;;;492045;240;1181;-75
2022/10/11 02:57:12;;;;;;;;;;;24.00;48.10;;;;;;492070;240;1132;-75
2022/10/11 02:59:13;;;;;;;;;;;24.10;48.20;;;;;;492033;240;1085;-75
2022/10/11 03:01:15;;;;;;;;;;;24.00;48.30;;;;;;492124;240;2411;-75
2022/10/11 03:03:16;;;;;;;;;;;24.00;48.30;;;;;;492053;240;1056;-75
2022/10/11 03:05:18;;;;;;;;;;;23.90;48.30;;;;;;492036;240;1258;-74
2022/10/11 03:07:19;;;;;;;;;;;23.90;48.40;;;;;;492121;240;1091;-74
2022/10/11 03:09:20;;;;;;;;;;;23.90;48.60;;;;;;492095;240;1138;-74
2022/10/11 03:11:22;;;;;;;;;;;23.80;48.70;;;;;;492062;240;1099;-74
2022/10/11 03:13:23;;;;;;;;;;;23.70;48.70;;;;;;492088;240;1146;-74
2022/10/11 03:15:24;;;;;;;;;;;23.70;48.80;;;;;;492156;240;1219;-74
2022/10/11 03:17:26;;;;;;;;;;;23.70;48.80;;;;;;492120;240;1129;-74
2022/10/11 03:19:28;;;;;;;;;;;23.50;49.00;;;;;;492096;243;1247;-74
2022/10/11 03:21:29;;;;;;;;;;;23.50;49.00;;;;;;492093;240;2155;-74
2022/10/11 03:23:30;;;;;;;;;;;23.50;49.20;;;;;;492075;240;1111;-74
2022/10/11 03:25:32;;;;;;;;;;;23.50;49.10;;;;;;492128;240;1098;-74
2022/10/11 03:27:33;;;;;;;;;;;23.40;49.10;;;;;;492095;240;1547;-74
2022/10/11 03:29:34;;;;;;;;;;;23.40;49.30;;;;;;492064;240;1412;-74
2022/10/11 03:31:36;;;;;;;;;;;23.30;49.30;;;;;;492093;240;1137;-74
2022/10/11 03:33:37;;;;;;;;;;;23.20;49.40;;;;;;492052;240;1380;-74
2022/10/11 03:35:39;;;;;;;;;;;23.20;49.60;;;;;;492109;240;1119;-74
2022/10/11 03:37:40;;;;;;;;;;;23.20;49.50;;;;;;492081;240;1323;-74
2022/10/11 03:39:41;;;;;;;;;;;23.30;49.40;;;;;;492047;240;1132;-74
2022/10/11 03:41:43;;;;;;;;;;;23.30;49.30;;;;;;491981;240;2212;-74
2022/10/11 03:43:44;;;;;;;;;;;23.40;49.10;;;;;;492038;240;1202;-74
2022/10/11 03:45:46;;;;;;;;;;;23.40;49.10;;;;;;492092;240;1187;-74
2022/10/11 03:47:47;;;;;;;;;;;23.40;48.90;;;;;;492112;240;1212;-74
2022/10/11 03:49:48;;;;;;;;;;;23.50;48.70;;;;;;492081;240;1095;-74
2022/10/11 03:51:50;;;;;;;;;;;23.60;48.70;;;;;;492109;240;1088;-74
2022/10/11 03:53:51;;;;;;;;;;;23.70;48.70;;;;;;492088;240;1102;-74
2022/10/11 03:55:53;;;;;;;;;;;23.60;48.90;;;;;;492075;240;1226;-74
2022/10/11 03:57:54;;;;;;;;;;;23.60;49.10;;;;;;492110;240;1403;-74
2022/10/11 03:59:56;;;;;;;;;;;23.70;49.20;;;;;;492046;240;1165;-75
2022/10/11 04:01:57;;;;;;;;;;;23.70;49.30;;;;;;492054;240;2160;-75
2022/10/11 04:03:58;;;;;;;;;;;23.70;49.30;;;;;;492069;240;1121;-74
2022/10/11 04:06:00;;;;;;;;;;;23.70;49.30;;;;;;492018;240;1087;-74
2022/10/11 04:08:01;;;;;;;;;;;23.80;49.20;;;;;;491984;240;1150;-74
2022/10/11 04:10:02;;;;;;;;;;;23.80;49.20;;;;;;491923;240;1126;-74
2022/10/11 04:12:04;;;;;;;;;;;23.90;49.10;;;;;;491888;240;1285;-74
2022/10/11 04:14:05;;;;;;;;;;;23.90;49.10;;;;;;491858;240;1136;-74
2022/10/11 04:16:06;;;;;;;;;;;23.90;49.00;;;;;;491932;240;1119;-74
2022/10/11 04:18:08;;;;;;;;;;;23.90;48.90;;;;;;491987;240;1078;-74
2022/10/11 04:20:09;;;;;;;;;;;23.90;49.00;;;;;;491955;240;1132;-74
2022/10/11 04:22:10;;;;;;;;;;;23.80;49.10;;;;;;491986;240;2184;-74
2022/10/11 04:24:12;;;;;;;;;;;23.70;49.10;;;;;;491978;240;1150;-74
2022/10/11 04:26:13;;;;;;;;;;;23.70;49.20;;;;;;491999;240;1096;-74
2022/10/11 04:28:15;;;;;;;;;;;23.60;49.20;;;;;;491902;240;1138;-74
2022/10/11 04:30:16;;;;;;;;;;;23.70;49.30;;;;;;491966;240;1581;-74
2022/10/11 04:32:17;;;;;;;;;;;23.60;49.30;;;;;;491994;240;1316;-74
2022/10/11 04:34:19;;;;;;;;;;;23.50;49.30;;;;;;492048;240;1164;-74
2022/10/11 04:36:20;;;;;;;;;;;23.40;49.50;;;;;;491949;240;1201;-74
2022/10/11 04:38:21;;;;;;;;;;;23.40;49.50;;;;;;491988;240;1132;-74
2022/10/11 04:40:23;;;;;;;;;;;23.20;49.50;;;;;;491850;240;1281;-74
2022/10/11 04:42:24;;;;;;;;;;;23.10;49.90;;;;;;491867;240;2176;-74
2022/10/11 04:44:26;;;;;;;;;;;23.10;49.80;;;;;;491884;240;1229;-74
2022/10/11 04:46:27;;;;;;;;;;;23.10;49.70;;;;;;491963;240;1102;-74
2022/10/11 04:48:28;;;;;;;;;;;23.20;49.60;;;;;;491862;240;1174;-74
2022/10/11 04:50:30;;;;;;;;;;;23.20;49.40;;;;;;491896;240;1126;-74
2022/10/11 04:52:31;;;;;;;;;;;23.20;49.30;;;;;;491897;240;1189;-74
2022/10/11 04:54:32;;;;;;;;;;;23.30;49.20;;;;;;491903;240;1076;-74
2022/10/11 04:56:34;;;;;;;;;;;23.30;49.00;;;;;;491988;240;1550;-74
2022/10/11 04:58:35;;;;;;;;;;;23.40;48.80;;;;;;491933;240;1216;-74
2022/10/11 05:00:36;;;;;;;;;;;23.50;48.70;;;;;;491910;240;1177;-74
2022/10/11 05:02:38;;;;;;;;;;;23.60;48.60;;;;;;491911;240;2136;-74
2022/10/11 05:04:39;;;;;;;;;;;23.60;48.60;;;;;;491973;240;1131;-74
2022/10/11 05:06:40;;;;;;;;;;;23.60;48.50;;;;;;491810;240;1181;-74
2022/10/11 05:08:42;;;;;;;;;;;23.70;48.70;;;;;;491909;240;1092;-75
2022/10/11 05:10:43;;;;;;;;;;;23.50;48.90;;;;;;491842;240;1146;-75
2022/10/11 05:12:44;;;;;;;;;;;23.50;49.20;;;;;;491808;240;1248;-75
2022/10/11 05:14:46;;;;;;;;;;;23.50;49.40;;;;;;491735;240;1250;-75
2022/10/11 05:16:47;;;;;;;;;;;23.40;49.50;;;;;;491784;240;1129;-75
2022/10/11 05:18:48;;;;;;;;;;;23.60;49.60;;;;;;491575;240;1146;-75
2022/10/11 05:20:50;;;;;;;;;;;23.60;49.50;;;;;;491786;240;1112;-75
2022/10/11 05:22:51;;;;;;;;;;;23.70;49.60;;;;;;491736;240;2188;-75
2022/10/11 05:24:52;;;;;;;;;;;23.70;49.50;;;;;;491750;240;1160;-75
2022/10/11 05:26:54;;;;;;;;;;;23.90;49.50;;;;;;491826;240;1229;-75
2022/10/11 05:28:55;;;;;;;;;;;24.00;49.40;;;;;;491750;240;1104;-75
2022/10/11 05:30:56;;;;;;;;;;;24.10;49.10;;;;;;491749;240;1185;-74
2022/10/11 05:32:58;;;;;;;;;;;24.10;48.80;;;;;;491758;240;1150;-74
2022/10/11 05:34:59;;;;;;;;;;;24.20;48.70;;;;;;491765;240;1077;-74
2022/10/11 05:37:00;;;;;;;;;;;24.10;48.70;;;;;;491702;240;1144;-74
2022/10/11 05:39:02;;;;;;;;;;;24.10;48.70;;;;;;491757;240;1101;-74
2022/10/11 05:41:03;;;;;;;;;;;24.10;48.70;;;;;;491793;240;1088;-74
2022/10/11 05:43:04;;;;;;;;;;;24.00;48.70;;;;;;491533;240;2148;-74
2022/10/11 05:45:06;;;;;;;;;;;24.00;48.80;;;;;;491706;240;1195;-74
2022/10/11 05:47:07;;;;;;;;;;;23.90;48.80;;;;;;491748;240;1183;-74
2022/10/11 05:49:09;;;;;;;;;;;23.90;48.90;;;;;;491807;240;1152;-74
2022/10/11 05:51:10;;;;;;;;;;;23.80;49.00;;;;;;491720;240;1093;-74
2022/10/11 05:53:11;;;;;;;;;;;23.80;49.10;;;;;;491787;240;1111;-74
2022/10/11 05:55:13;;;;;;;;;;;23.70;49.10;;;;;;491747;240;1197;-75
2022/10/11 05:57:14;;;;;;;;;;;23.70;49.10;;;;;;491781;240;1141;-75
2022/10/11 05:59:15;;;;;;;;;;;23.70;49.20;;;;;;491754;240;1249;-75
2022/10/11 06:01:17;;;;;;;;;;;23.60;49.10;;;;;;491794;240;1094;-75
2022/10/11 06:03:19;;;;;;;;;;;23.70;49.20;;;;;;491742;240;2191;-75
2022/10/11 06:05:20;;;;;;;;;;;23.60;49.40;;;;;;491696;240;1213;-75
2022/10/11 06:07:22;;;;;;;;;;;23.60;49.30;;;;;;491679;240;1231;-75
2022/10/11 06:09:23;;;;;;;;;;;23.70;49.20;;;;;;491643;240;1189;-75
2022/10/11 06:11:24;;;;;;;;;;;23.70;49.00;;;;;;491731;240;1100;-75
2022/10/11 06:13:26;;;;;;;;;;;23.80;48.90;;;;;;491749;240;1160;-75
2022/10/11 06:15:27;;;;;;;;;;;23.90;48.70;;;;;;491687;240;1161;-75
2022/10/11 06:17:28;;;;;;;;;;;24.00;48.60;;;;;;491740;240;1137;-75
2022/10/11 06:19:30;;;;;;;;;;;24.10;48.50;;;;;;491601;240;1087;-75
2022/10/11 06:21:31;;;;;;;;;;;24.00;48.40;;;;;;491814;240;1231;-75
2022/10/11 06:23:32;;;;;;;;;;;24.00;48.50;;;;;;491680;240;2191;-75
2022/10/11 06:25:34;;;;;;;;;;;24.00;48.70;;;;;;491647;240;1129;-75
2022/10/11 06:27:35;;;;;;;;;;;24.10;48.70;;;;;;491713;240;1104;-74
2022/10/11 06:29:36;;;;;;;;;;;24.20;48.60;;;;;;491646;240;1185;-74
2022/10/11 06:31:38;;;;;;;;;;;24.20;48.70;;;;;;491654;240;1120;-74
2022/10/11 06:33:39;;;;;;;;;;;24.20;48.70;;;;;;491531;240;1203;-75
2022/10/11 06:35:40;;;;;;;;;;;24.30;48.60;;;;;;491730;240;1113;-75
2022/10/11 06:37:42;;;;;;;;;;;24.40;48.60;;;;;;491756;240;1193;-75
2022/10/11 06:39:43;;;;;;;;;;;24.40;48.50;;;;;;491644;240;1261;-75
2022/10/11 06:41:44;;;;;;;;;;;24.40;48.40;;;;;;491781;240;1096;-75
2022/10/11 06:43:48;;;;;;;;;;;24.40;48.40;;;;;;491676;240;2177;-75
2022/10/11 06:45:47;;;;;;;;;;;24.50;48.40;;;;;;491721;240;1446;-75
2022/10/11 06:47:48;;;;;;;;;;;24.40;48.30;;;;;;491670;240;1104;-75
2022/10/11 06:49:50;;;;;;;;;;;24.40;48.40;;;;;;491702;240;1179;-75
2022/10/11 06:51:51;;;;;;;;;;;24.40;48.40;;;;;;491732;240;1064;-74
2022/10/11 06:53:54;;;;;;;;;;;24.40;48.50;;;;;;491439;240;1220;-74
2022/10/11 06:55:54;;;;;;;;;;;24.30;48.50;;;;;;491669;240;1405;-74
2022/10/11 06:57:55;;;;;;;;;;;24.30;48.60;;;;;;491648;240;1087;-75
2022/10/11 06:59:56;;;;;;;;;;;24.20;48.70;;;;;;491649;240;1162;-74
2022/10/11 07:01:58;;;;;;;;;;;24.10;48.80;;;;;;491598;240;1144;-74
2022/10/11 07:04:00;;;;;;;;;;;24.10;48.80;;;;;;491760;240;2204;-74
2022/10/11 07:06:00;;;;;;;;;;;24.10;48.80;;;;;;491730;240;1561;-74
2022/10/11 07:08:02;;;;;;;;;;;24.00;48.90;;;;;;491570;240;1133;-75
2022/10/11 07:10:03;;;;;;;;;;;24.00;49.10;;;;;;491662;240;1564;-75
2022/10/11 07:12:04;;;;;;;;;;;23.90;49.10;;;;;;491534;240;1170;-74
2022/10/11 07:14:06;;;;;;;;;;;23.90;49.10;;;;;;491498;240;1260;-74
2022/10/11 07:16:07;;;;;;;;;;;23.90;49.30;;;;;;491574;240;1152;-74
2022/10/11 07:18:09;;;;;;;;;;;23.80;49.40;;;;;;491443;240;1199;-74
2022/10/11 07:20:10;;;;;;;;;;;23.80;49.40;;;;;;491333;240;1194;-74
2022/10/11 07:22:11;;;;;;;;;;;23.70;49.40;;;;;;491119;240;1162;-74
2022/10/11 07:24:13;;;;;;;;;;;23.70;49.50;;;;;;491426;240;2160;-74
2022/10/11 07:26:14;;;;;;;;;;;23.70;49.50;;;;;;491376;240;1164;-74
2022/10/11 07:28:15;;;;;;;;;;;23.70;49.50;;;;;;491618;240;1178;-74
2022/10/11 07:30:17;;;;;;;;;;;23.60;49.70;;;;;;491400;240;1185;-75
2022/10/11 07:32:18;;;;;;;;;;;23.60;49.70;;;;;;491399;240;1150;-74
2022/10/11 07:34:21;;;;;;;;;;;23.60;49.70;;;;;;491388;240;1129;-74
2022/10/11 07:36:22;;;;;;;;;;;23.60;49.60;;;;;;491429;240;1428;-74
2022/10/11 07:38:23;;;;;;;;;;;23.60;49.60;;;;;;491266;240;1156;-74
2022/10/11 07:40:25;;;;;;;;;;;23.60;49.60;;;;;;491284;240;1089;-74
2022/10/11 07:42:26;;;;;;;;;;;23.60;49.70;;;;;;491506;240;1173;-75
2022/10/11 07:44:27;;;;;;;;;;;23.50;49.70;;;;;;491411;240;2177;-74
2022/10/11 07:46:29;;;;;;;;;;;23.60;49.80;;;;;;491429;240;1144;-74
2022/10/11 07:48:30;;;;;;;;;;;23.60;49.60;;;;;;491628;240;1349;-75
2022/10/11 07:50:31;;;;;;;;;;;23.70;49.60;;;;;;491608;240;1359;-75
2022/10/11 07:52:33;;;;;;;;;;;23.70;49.40;;;;;;491601;240;1100;-74
2022/10/11 07:54:34;;;;;;;;;;;23.90;49.30;;;;;;491734;240;1127;-74
2022/10/11 07:56:36;;;;;;;;;;;23.90;49.20;;;;;;491680;240;1098;-74
2022/10/11 07:58:37;;;;;;;;;;;23.90;49.10;;;;;;491580;240;1083;-74
2022/10/11 08:00:38;;;;;;;;;;;24.00;49.00;;;;;;491535;240;1097;-74
2022/10/11 08:02:39;;;;;;;;;;;23.90;49.10;;;;;;491434;240;1027;-74
2022/10/11 08:04:41;;;;;;;;;;;23.90;49.20;;;;;;491542;240;2191;-74
2022/10/11 08:06:42;;;;;;;;;;;23.90;49.30;;;;;;491683;240;1162;-74
2022/10/11 08:08:43;;;;;;;;;;;23.90;49.30;;;;;;491503;240;1128;-74
2022/10/11 08:10:45;;;;;;;;;;;23.90;49.30;;;;;;491417;240;1067;-75
2022/10/11 08:12:46;;;;;;;;;;;23.90;49.30;;;;;;491649;240;1175;-75
2022/10/11 08:14:47;;;;;;;;;;;23.90;49.30;;;;;;491545;240;1113;-75
2022/10/11 08:16:49;;;;;;;;;;;23.90;49.20;;;;;;491650;240;1189;-75
2022/10/11 08:18:50;;;;;;;;;;;23.90;49.30;;;;;;491179;240;1182;-74
2022/10/11 08:20:51;;;;;;;;;;;23.90;49.40;;;;;;491537;240;1102;-75
2022/10/11 08:22:53;;;;;;;;;;;23.90;49.40;;;;;;491493;240;1330;-74
2022/10/11 08:24:54;;;;;;;;;;;23.90;49.30;;;;;;491331;240;2172;-74
2022/10/11 08:26:55;;;;;;;;;;;23.90;49.30;;;;;;491099;240;1213;-74
2022/10/11 08:28:57;;;;;;;;;;;23.90;49.40;;;;;;491303;240;1085;-74
2022/10/11 08:30:58;;;;;;;;;;;23.90;49.40;;;;;;490999;240;1109;-74
2022/10/11 08:32:59;;;;;;;;;;;23.90;49.40;;;;;;491451;240;1093;-74
2022/10/11 08:35:01;;;;;;;;;;;23.90;49.40;;;;;;491641;240;1329;-75
2022/10/11 08:37:02;;;;;;;;;;;24.00;49.40;;;;;;491550;240;1227;-75
2022/10/11 08:39:03;;;;;;;;;;;24.00;49.30;;;;;;491574;240;1154;-75
2022/10/11 08:41:05;;;;;;;;;;;24.00;49.40;;;;;;491421;240;1156;-75
2022/10/11 08:43:06;;;;;;;;;;;23.90;49.40;;;;;;490773;240;1087;-74
2022/10/11 08:45:07;;;;;;;;;;;24.00;49.50;;;;;;491581;240;2184;-75
2022/10/11 08:47:09;;;;;;;;;;;24.00;49.40;;;;;;491634;240;1126;-75
2022/10/11 08:49:10;;;;;;;;;;;23.90;49.40;;;;;;491506;240;1117;-75
2022/10/11 08:51:12;;;;;;;;;;;24.00;49.40;;;;;;491453;240;1063;-75
2022/10/11 08:53:13;;;;;;;;;;;24.00;49.50;;;;;;491265;240;1129;-74
2022/10/11 08:55:14;;;;;;;;;;;23.90;49.50;;;;;;491400;240;1172;-74
2022/10/11 08:57:16;;;;;;;;;;;23.90;49.50;;;;;;491632;240;1137;-74
2022/10/11 08:59:17;;;;;;;;;;;23.90;49.50;;;;;;491419;240;1175;-74
2022/10/11 09:01:18;;;;;;;;;;;23.90;49.60;;;;;;491389;240;1119;-74
2022/10/11 09:03:20;;;;;;;;;;;23.90;49.60;;;;;;491385;240;1189;-74
2022/10/11 09:05:21;;;;;;;;;;;23.90;49.70;;;;;;491581;240;1066;-74
2022/10/11 09:07:22;;;;;;;;;;;23.90;49.70;;;;;;491611;240;1118;-74
2022/10/11 09:09:24;;;;;;;;;;;23.90;49.70;;;;;;491633;240;1070;-74
2022/10/11 09:11:25;;;;;;;;;;;23.90;49.70;;;;;;491604;240;1021;-74
2022/10/11 09:13:32;;;;;;;;;;;23.90;49.80;;;;;;491357;240;1128;-74
2022/10/11 09:15:32;;;;;;;;;;;23.90;49.70;;;;;;491371;240;1389;-74
2022/10/11 09:17:33;;;;;;;;;;;23.80;49.90;;;;;;491448;240;1254;-74
2022/10/11 09:19:34;;;;;;;;;;;23.90;49.90;;;;;;491587;240;1051;-74
2022/10/11 09:21:35;;;;;;;;;;;23.90;49.90;;;;;;491515;240;1145;-74
2022/10/11 09:23:37;;;;;;;;;;;23.80;49.80;;;;;;491453;240;2176;-74
2022/10/11 09:25:38;;;;;;;;;;;23.90;49.80;;;;;;491540;240;1120;-74
2022/10/11 09:27:39;;;;;;;;;;;23.90;49.80;;;;;;491438;240;1140;-74
2022/10/11 09:29:41;;;;;;;;;;;23.90;49.70;;;;;;491414;240;1067;-74
2022/10/11 09:31:42;;;;;;;;;;;23.90;49.70;;;;;;491542;240;1114;-74
2022/10/11 09:33:44;;;;;;;;;;;23.90;49.70;;;;;;491397;240;1133;-74
2022/10/11 09:35:45;;;;;;;;;;;23.90;49.70;;;;;;491432;240;1102;-74
2022/10/11 09:37:46;;;;;;;;;;;23.90;49.70;;;;;;491521;240;1094;-74
2022/10/11 09:39:48;;;;;;;;;;;23.90;49.80;;;;;;491603;240;1182;-74
2022/10/11 09:41:49;;;;;;;;;;;23.90;49.80;;;;;;491595;240;1134;-74
2022/10/11 09:43:50;;;;;;;;;;;23.90;49.70;;;;;;491395;240;2133;-74
2022/10/11 09:45:52;;;;;;;;;;;23.90;49.80;;;;;;491358;240;1137;-74
2022/10/11 09:47:53;;;;;;;;;;;23.90;49.70;;;;;;491412;240;1287;-74
2022/10/11 09:49:54;;;;;;;;;;;23.90;49.70;;;;;;491359;240;1090;-74
2022/10/11 09:51:56;;;;;;;;;;;24.00;49.80;;;;;;491484;240;1213;-74
2022/10/11 09:53:57;;;;;;;;;;;23.90;49.80;;;;;;491390;240;1169;-74
2022/10/11 09:55:58;;;;;;;;;;;24.00;49.70;;;;;;491517;240;1080;-74
2022/10/11 09:58:00;;;;;;;;;;;24.00;49.70;;;;;;491269;240;1244;-74
2022/10/11 10:00:01;;;;;;;;;;;24.00;49.70;;;;;;491267;240;1043;-74
2022/10/11 10:02:02;;;;;;;;;;;24.00;49.60;;;;;;491556;240;1093;-74
2022/10/11 10:04:04;;;;;;;;;;;24.00;49.60;;;;;;491440;240;2244;-74
2022/10/11 10:06:05;;;;;;;;;;;24.00;49.70;;;;;;491486;240;1106;-75
2022/10/11 10:08:08;;;;;;;;;;;24.00;49.70;;;;;;491555;240;1111;-75
2022/10/11 10:10:09;;;;;;;;;;;24.00;49.70;;;;;;491532;240;1219;-74
2022/10/11 10:12:10;;;;;;;;;;;24.00;49.80;;;;;;491550;240;1481;-74
2022/10/11 10:14:11;;;;;;;;;;;24.00;49.70;;;;;;491495;240;1067;-74
2022/10/11 10:16:12;;;;;;;;;;;24.00;49.70;;;;;;491606;240;1161;-74
2022/10/11 10:18:14;;;;;;;;;;;24.00;49.70;;;;;;491379;240;1192;-74
2022/10/11 10:20:15;;;;;;;;;;;24.00;49.70;;;;;;491506;240;1179;-75
2022/10/11 10:22:16;;;;;;;;;;;24.00;49.70;;;;;;491598;240;1113;-75
2022/10/11 10:24:18;;;;;;;;;;;24.00;49.70;;;;;;491543;240;2193;-75
2022/10/11 10:26:19;;;;;;;;;;;24.00;49.70;;;;;;491687;240;1099;-74
2022/10/11 10:28:20;;;;;;;;;;;24.00;49.70;;;;;;491215;240;1052;-74
2022/10/11 10:30:22;;;;;;;;;;;24.10;49.70;;;;;;491573;240;1036;-74
2022/10/11 10:32:23;;;;;;;;;;;24.00;49.70;;;;;;491557;240;1096;-74
2022/10/11 10:34:24;;;;;;;;;;;24.00;49.80;;;;;;491456;240;1071;-74
2022/10/11 10:36:26;;;;;;;;;;;24.00;49.70;;;;;;491569;240;1071;-74
2022/10/11 10:38:27;;;;;;;;;;;24.00;49.80;;;;;;491502;240;1167;-74
2022/10/11 10:40:28;;;;;;;;;;;24.10;49.70;;;;;;491539;240;1071;-74
2022/10/11 10:42:30;;;;;;;;;;;24.10;49.60;;;;;;491541;240;1183;-74
2022/10/11 10:44:31;;;;;;;;;;;24.10;49.60;;;;;;491389;240;2151;-74
2022/10/11 10:46:32;;;;;;;;;;;24.00;49.60;;;;;;491397;240;1132;-74
2022/10/11 10:48:34;;;;;;;;;;;24.10;49.50;;;;;;491212;240;1146;-74
2022/10/11 10:50:35;;;;;;;;;;;24.00;49.50;;;;;;491369;240;1223;-74
2022/10/11 10:52:37;;;;;;;;;;;24.00;49.60;;;;;;491532;240;1113;-74
2022/10/11 10:54:38;;;;;;;;;;;24.00;49.60;;;;;;491460;240;1125;-74
2022/10/11 10:56:40;;;;;;;;;;;24.10;49.50;;;;;;491464;240;1148;-74
2022/10/11 10:58:41;;;;;;;;;;;24.00;49.50;;;;;;491422;240;1372;-74
2022/10/11 11:00:42;;;;;;;;;;;24.10;49.50;;;;;;491132;240;1295;-74
2022/10/11 11:02:44;;;;;;;;;;;24.10;49.50;;;;;;491181;240;1123;-75
2022/10/11 11:04:45;;;;;;;;;;;24.00;49.50;;;;;;491116;240;2168;-74
2022/10/11 11:06:46;;;;;;;;;;;24.00;49.70;;;;;;491123;240;1091;-74
2022/10/11 11:08:48;;;;;;;;;;;24.00;49.70;;;;;;491303;240;1190;-74
2022/10/11 11:10:49;;;;;;;;;;;24.00;49.70;;;;;;491438;240;1107;-75
2022/10/11 11:12:50;;;;;;;;;;;23.90;49.70;;;;;;491331;240;1121;-74
2022/10/11 11:14:51;;;;;;;;;;;23.90;49.80;;;;;;491080;240;1137;-74
2022/10/11 11:16:53;;;;;;;;;;;23.90;49.80;;;;;;491199;240;1187;-74
2022/10/11 11:18:54;;;;;;;;;;;24.00;49.80;;;;;;490962;240;1185;-74
2022/10/11 11:20:55;;;;;;;;;;;23.90;49.80;;;;;;491087;240;1428;-74
2022/10/11 11:22:57;;;;;;;;;;;23.90;49.80;;;;;;491436;240;1173;-74
2022/10/11 11:24:58;;;;;;;;;;;23.90;49.90;;;;;;491325;240;2229;-74
2022/10/11 11:26:59;;;;;;;;;;;23.90;49.80;;;;;;491402;240;1258;-74
2022/10/11 11:29:01;;;;;;;;;;;24.00;49.80;;;;;;491397;240;1373;-75
2022/10/11 11:31:03;;;;;;;;;;;24.00;49.80;;;;;;491285;240;1178;-74
2022/10/11 11:33:04;;;;;;;;;;;23.90;49.70;;;;;;491387;240;1145;-74
2022/10/11 11:35:05;;;;;;;;;;;23.90;49.80;;;;;;491455;240;1104;-74
2022/10/11 11:37:07;;;;;;;;;;;23.90;49.80;;;;;;491533;240;1109;-74
2022/10/11 11:39:08;;;;;;;;;;;24.00;49.80;;;;;;491555;240;1198;-74
2022/10/11 11:41:09;;;;;;;;;;;24.00;49.80;;;;;;491338;240;1324;-74
2022/10/11 11:43:10;;;;;;;;;;;24.00;49.80;;;;;;491421;240;1083;-74
2022/10/11 11:45:12;;;;;;;;;;;24.00;49.80;;;;;;491612;240;2175;-74
2022/10/11 11:47:16;;;;;;;;;;;24.00;49.70;;;;;;491380;240;1133;-74
2022/10/11 11:49:15;;;;;;;;;;;24.00;49.70;;;;;;491544;240;1398;-74
2022/10/11 11:51:16;;;;;;;;;;;24.00;49.60;;;;;;491584;240;1071;-75
2022/10/11 11:53:17;;;;;;;;;;;24.10;49.70;;;;;;491537;240;1025;-74
2022/10/11 11:55:19;;;;;;;;;;;24.10;49.60;;;;;;491460;240;1090;-74
2022/10/11 11:57:20;;;;;;;;;;;24.10;49.50;;;;;;491484;240;1086;-74